PWSweather.com
Personal Weather Stations
Station Observations
KAZTUCSO57
Countryside Manor, Tucson, AZ 85742

Countryside ManorTucson, AZ 85742

Lat: 32.3692, Lon: -111.066

Elevation: 2307

Station Type: Davis VP Pro+ 6163

http://frogville.us

High Low Average
Temperature 87.4°F30.8°C 54.8°F12.7°C 70.4°F21.3°C
Dew Point 42.3°F5.7°C 35.3°F1.8°C 39.8°F4.3°C
Winds 4.6 mph 7.4 kmh Calm Calm 1.0 mph S1.6 kmh S
Wind Gusts 6.9 mph11.1 kmh -- 2.0 mph3.2 kmh
Humidity 56% 17% 36%
Pressure 30.00 in1015.9 mb 29.80 in1009.1 mb -
Precipitation 0.00 in0.0 mm - -
Hour Temp Dew Point Humidity Winds Wind Gusts Pressure Precip Precip Rate Daily Precip Total
12:00 AM 60.8°F16.0°C 39.9°F4.4°C 46% Calm Calm 2.3 mph3.7 kmh 29.90 in1012.5 mb - 0.00 in0.0 mm 0.00 in0.0 mm
12:10 AM 60.5°F15.8°C 39.6°F4.2°C 46% Calm Calm 1.2 mph1.9 kmh 29.90 in1012.5 mb - 0.00 in0.0 mm 0.00 in0.0 mm
12:20 AM 60.4°F15.8°C 40.1°F4.5°C 47% Calm Calm 1.2 mph1.9 kmh 29.90 in1012.5 mb - 0.00 in0.0 mm 0.00 in0.0 mm
12:30 AM 60.3°F15.7°C 40.0°F4.4°C 47% Calm Calm -- 29.90 in1012.5 mb - 0.00 in0.0 mm 0.00 in0.0 mm
12:40 AM 60.1°F15.6°C 40.3°F4.6°C 48% Calm Calm 1.2 mph1.9 kmh 29.90 in1012.5 mb - 0.00 in0.0 mm 0.00 in0.0 mm
12:50 AM 59.9°F15.5°C 40.1°F4.5°C 48% Calm Calm 1.2 mph1.9 kmh 29.90 in1012.5 mb - 0.00 in0.0 mm 0.00 in0.0 mm
01:00 AM 59.8°F15.4°C 40.1°F4.5°C 48% Calm Calm -- 29.90 in1012.5 mb - 0.00 in0.0 mm 0.00 in0.0 mm
01:10 AM 59.8°F15.4°C 40.1°F4.5°C 48% Calm Calm -- 29.90 in1012.5 mb - 0.00 in0.0 mm 0.00 in0.0 mm
01:20 AM 59.8°F15.4°C 39.5°F4.2°C 47% Calm Calm 1.2 mph1.9 kmh 29.90 in1012.5 mb - 0.00 in0.0 mm 0.00 in0.0 mm
01:30 AM 59.8°F15.4°C 39.5°F4.2°C 47% Calm Calm 1.2 mph1.9 kmh 29.90 in1012.5 mb - 0.00 in0.0 mm 0.00 in0.0 mm
01:40 AM 59.8°F15.4°C 40.1°F4.5°C 48% 1.2 mph NNE1.9 kmh NNE 2.3 mph3.7 kmh 29.89 in1012.2 mb - 0.00 in0.0 mm 0.00 in0.0 mm
01:50 AM 59.7°F15.4°C 40.0°F4.4°C 48% Calm Calm 2.3 mph3.7 kmh 29.89 in1012.2 mb - 0.00 in0.0 mm 0.00 in0.0 mm
02:00 AM 59.7°F15.4°C 40.0°F4.4°C 48% 1.2 mph NNE1.9 kmh NNE 2.3 mph3.7 kmh 29.89 in1012.2 mb - 0.00 in0.0 mm 0.00 in0.0 mm
02:10 AM 59.6°F15.3°C 39.9°F4.4°C 48% 1.2 mph NNE1.9 kmh NNE 2.3 mph3.7 kmh 29.89 in1012.2 mb - 0.00 in0.0 mm 0.00 in0.0 mm
02:20 AM 59.4°F15.2°C 39.7°F4.3°C 48% 1.2 mph NNE1.9 kmh NNE 2.3 mph3.7 kmh 29.89 in1012.2 mb - 0.00 in0.0 mm 0.00 in0.0 mm
02:30 AM 59.2°F15.1°C 40.1°F4.5°C 49% 1.2 mph NNE1.9 kmh NNE 2.3 mph3.7 kmh 29.89 in1012.2 mb - 0.00 in0.0 mm 0.00 in0.0 mm
02:40 AM 58.8°F14.9°C 39.7°F4.3°C 49% 1.2 mph NE1.9 kmh NE 2.3 mph3.7 kmh 29.88 in1011.9 mb - 0.00 in0.0 mm 0.00 in0.0 mm
02:50 AM 58.7°F14.8°C 40.1°F4.5°C 50% Calm Calm -- 29.88 in1011.9 mb - 0.00 in0.0 mm 0.00 in0.0 mm
03:00 AM 58.5°F14.7°C 39.4°F4.1°C 49% Calm Calm -- 29.88 in1011.9 mb - 0.00 in0.0 mm 0.00 in0.0 mm
03:10 AM 58.2°F14.6°C 39.1°F3.9°C 49% Calm Calm 1.2 mph1.9 kmh 29.89 in1012.2 mb - 0.00 in0.0 mm 0.00 in0.0 mm
03:20 AM 58.0°F14.4°C 39.5°F4.2°C 50% 1.2 mph NE1.9 kmh NE 3.5 mph5.6 kmh 29.88 in1011.9 mb - 0.00 in0.0 mm 0.00 in0.0 mm
03:30 AM 57.8°F14.3°C 39.3°F4.1°C 50% 1.2 mph ENE1.9 kmh ENE 2.3 mph3.7 kmh 29.88 in1011.9 mb - 0.00 in0.0 mm 0.00 in0.0 mm
03:40 AM 57.6°F14.2°C 39.6°F4.2°C 51% 1.2 mph ENE1.9 kmh ENE 3.5 mph5.6 kmh 29.88 in1011.9 mb - 0.00 in0.0 mm 0.00 in0.0 mm
03:50 AM 57.7°F14.3°C 39.7°F4.3°C 51% 1.2 mph ENE1.9 kmh ENE 3.5 mph5.6 kmh 29.87 in1011.5 mb - 0.00 in0.0 mm 0.00 in0.0 mm
04:00 AM 57.6°F14.2°C 40.1°F4.5°C 52% 1.2 mph NE1.9 kmh NE 2.3 mph3.7 kmh 29.88 in1011.9 mb - 0.00 in0.0 mm 0.00 in0.0 mm
04:10 AM 57.5°F14.2°C 40.0°F4.4°C 52% 1.2 mph ENE1.9 kmh ENE 3.5 mph5.6 kmh 29.88 in1011.9 mb - 0.00 in0.0 mm 0.00 in0.0 mm
04:20 AM 57.3°F14.1°C 39.8°F4.3°C 52% 2.3 mph NE3.7 kmh NE 3.5 mph5.6 kmh 29.88 in1011.9 mb - 0.00 in0.0 mm 0.00 in0.0 mm
04:30 AM 57.2°F14.0°C 40.2°F4.6°C 53% 1.2 mph NE1.9 kmh NE 1.2 mph1.9 kmh 29.88 in1011.9 mb - 0.00 in0.0 mm 0.00 in0.0 mm
04:40 AM 57.1°F13.9°C 40.1°F4.5°C 53% 1.2 mph NE1.9 kmh NE 2.3 mph3.7 kmh 29.88 in1011.9 mb - 0.00 in0.0 mm 0.00 in0.0 mm
04:50 AM 56.8°F13.8°C 40.3°F4.6°C 54% 1.2 mph NE1.9 kmh NE 2.3 mph3.7 kmh 29.88 in1011.9 mb - 0.00 in0.0 mm 0.00 in0.0 mm
05:00 AM 56.4°F13.6°C 40.0°F4.4°C 54% 1.2 mph NE1.9 kmh NE 3.5 mph5.6 kmh 29.88 in1011.9 mb - 0.00 in0.0 mm 0.00 in0.0 mm
05:10 AM 56.0°F13.3°C 40.1°F4.5°C 55% Calm Calm 1.2 mph1.9 kmh 29.89 in1012.2 mb - 0.00 in0.0 mm 0.00 in0.0 mm
05:20 AM 55.8°F13.2°C 39.8°F4.3°C 55% 1.2 mph NE1.9 kmh NE 2.3 mph3.7 kmh 29.89 in1012.2 mb - 0.00 in0.0 mm 0.00 in0.0 mm
05:30 AM 55.4°F13.0°C 40.0°F4.4°C 56% 1.2 mph NE1.9 kmh NE 2.3 mph3.7 kmh 29.89 in1012.2 mb - 0.00 in0.0 mm 0.00 in0.0 mm
05:40 AM 55.4°F13.0°C 40.0°F4.4°C 56% 1.2 mph NE1.9 kmh NE 3.5 mph5.6 kmh 29.89 in1012.2 mb - 0.00 in0.0 mm 0.00 in0.0 mm
05:50 AM 55.3°F12.9°C 39.4°F4.1°C 55% 1.2 mph ENE1.9 kmh ENE 3.5 mph5.6 kmh 29.88 in1011.9 mb - 0.00 in0.0 mm 0.00 in0.0 mm
06:00 AM 55.2°F12.9°C 39.3°F4.1°C 55% 1.2 mph NE1.9 kmh NE 2.3 mph3.7 kmh 29.89 in1012.2 mb - 0.00 in0.0 mm 0.00 in0.0 mm
06:10 AM 55.1°F12.8°C 39.2°F4.0°C 55% 1.2 mph NE1.9 kmh NE 1.2 mph1.9 kmh 29.90 in1012.5 mb - 0.00 in0.0 mm 0.00 in0.0 mm
06:20 AM 54.9°F12.7°C 39.0°F3.9°C 55% Calm Calm -- 29.90 in1012.5 mb - 0.00 in0.0 mm 0.00 in0.0 mm
06:30 AM 54.8°F12.7°C 39.0°F3.9°C 55% 2.3 mph ENE3.7 kmh ENE 3.5 mph5.6 kmh 29.90 in1012.5 mb - 0.00 in0.0 mm 0.00 in0.0 mm
06:40 AM 54.9°F12.7°C 39.0°F3.9°C 55% 1.2 mph ENE1.9 kmh ENE 2.3 mph3.7 kmh 29.91 in1012.9 mb - 0.00 in0.0 mm 0.00 in0.0 mm
06:50 AM 55.1°F12.8°C 39.2°F4.0°C 55% 1.2 mph NE1.9 kmh NE 2.3 mph3.7 kmh 29.91 in1012.9 mb - 0.00 in0.0 mm 0.00 in0.0 mm
07:00 AM 55.3°F12.9°C 38.9°F3.8°C 54% 1.2 mph NE1.9 kmh NE 2.3 mph3.7 kmh 29.91 in1012.9 mb - 0.00 in0.0 mm 0.00 in0.0 mm
07:10 AM 55.5°F13.1°C 39.1°F3.9°C 54% 1.2 mph NE1.9 kmh NE 2.3 mph3.7 kmh 29.91 in1012.9 mb - 0.00 in0.0 mm 0.00 in0.0 mm
07:20 AM 56.1°F13.4°C 39.6°F4.2°C 54% 1.2 mph NE1.9 kmh NE 1.2 mph1.9 kmh 29.91 in1012.9 mb - 0.00 in0.0 mm 0.00 in0.0 mm
07:30 AM 57.3°F14.1°C 39.3°F4.1°C 51% 1.2 mph NNE1.9 kmh NNE 1.2 mph1.9 kmh 29.92 in1013.2 mb - 0.00 in0.0 mm 0.00 in0.0 mm
07:40 AM 58.6°F14.8°C 39.5°F4.2°C 49% Calm Calm 1.2 mph1.9 kmh 29.92 in1013.2 mb - 0.00 in0.0 mm 0.00 in0.0 mm
07:50 AM 60.1°F15.6°C 39.8°F4.3°C 47% 2.3 mph E3.7 kmh E 3.5 mph5.6 kmh 29.92 in1013.2 mb - 0.00 in0.0 mm 0.00 in0.0 mm
08:00 AM 61.4°F16.3°C 39.9°F4.4°C 45% 1.2 mph E1.9 kmh E 3.5 mph5.6 kmh 29.92 in1013.2 mb - 0.00 in0.0 mm 0.00 in0.0 mm
08:10 AM 62.8°F17.1°C 40.6°F4.8°C 44% 1.2 mph E1.9 kmh E 3.5 mph5.6 kmh 29.93 in1013.5 mb - 0.00 in0.0 mm 0.00 in0.0 mm
08:20 AM 64.3°F17.9°C 40.7°F4.8°C 42% 2.3 mph E3.7 kmh E 4.6 mph7.4 kmh 29.93 in1013.5 mb - 0.00 in0.0 mm 0.00 in0.0 mm
08:30 AM 65.8°F18.8°C 40.8°F4.9°C 40% 1.2 mph NE1.9 kmh NE 2.3 mph3.7 kmh 29.92 in1013.2 mb - 0.00 in0.0 mm 0.00 in0.0 mm
08:40 AM 67.0°F19.4°C 40.6°F4.8°C 38% 1.2 mph E1.9 kmh E 2.3 mph3.7 kmh 29.92 in1013.2 mb - 0.00 in0.0 mm 0.00 in0.0 mm
08:50 AM 68.2°F20.1°C 40.2°F4.6°C 36% 1.2 mph NE1.9 kmh NE 2.3 mph3.7 kmh 29.93 in1013.5 mb - 0.00 in0.0 mm 0.00 in0.0 mm
09:00 AM 69.0°F20.6°C 40.2°F4.6°C 35% 1.2 mph E1.9 kmh E 3.5 mph5.6 kmh 29.93 in1013.5 mb - 0.00 in0.0 mm 0.00 in0.0 mm
09:10 AM 69.5°F20.8°C 40.7°F4.8°C 35% 1.2 mph E1.9 kmh E 2.3 mph3.7 kmh 29.93 in1013.5 mb - 0.00 in0.0 mm 0.00 in0.0 mm
09:20 AM 70.3°F21.3°C 40.6°F4.8°C 34% 1.2 mph ESE1.9 kmh ESE 3.5 mph5.6 kmh 29.93 in1013.5 mb - 0.00 in0.0 mm 0.00 in0.0 mm
09:30 AM 70.8°F21.6°C 40.3°F4.6°C 33% Calm Calm 3.5 mph5.6 kmh 29.93 in1013.5 mb - 0.00 in0.0 mm 0.00 in0.0 mm
09:40 AM 71.3°F21.8°C 40.7°F4.8°C 33% 1.2 mph E1.9 kmh E 3.5 mph5.6 kmh 29.92 in1013.2 mb - 0.00 in0.0 mm 0.00 in0.0 mm
09:50 AM 71.3°F21.8°C 40.7°F4.8°C 33% 1.2 mph SW1.9 kmh SW 3.5 mph5.6 kmh 29.92 in1013.2 mb - 0.00 in0.0 mm 0.00 in0.0 mm
10:00 AM 71.5°F21.9°C 40.9°F4.9°C 33% 1.2 mph S1.9 kmh S 3.5 mph5.6 kmh 29.93 in1013.5 mb - 0.00 in0.0 mm 0.00 in0.0 mm
10:10 AM 72.2°F22.3°C 40.7°F4.8°C 32% 1.2 mph S1.9 kmh S 2.3 mph3.7 kmh 29.93 in1013.5 mb - 0.00 in0.0 mm 0.00 in0.0 mm
10:20 AM 73.0°F22.8°C 40.6°F4.8°C 31% Calm Calm 1.2 mph1.9 kmh 29.92 in1013.2 mb - 0.00 in0.0 mm 0.00 in0.0 mm
10:30 AM 74.5°F23.6°C 41.0°F5.0°C 30% 1.2 mph E1.9 kmh E 3.5 mph5.6 kmh 29.91 in1012.9 mb - 0.00 in0.0 mm 0.00 in0.0 mm
10:40 AM 75.9°F24.4°C 40.5°F4.7°C 28% Calm Calm 2.3 mph3.7 kmh 29.91 in1012.9 mb - 0.00 in0.0 mm 0.00 in0.0 mm
10:50 AM 77.1°F25.1°C 40.6°F4.8°C 27% Calm Calm -- 29.91 in1012.9 mb - 0.00 in0.0 mm 0.00 in0.0 mm
11:00 AM 78.1°F25.6°C 40.4°F4.7°C 26% Calm Calm -- 29.91 in1012.9 mb - 0.00 in0.0 mm 0.00 in0.0 mm
11:10 AM 79.7°F26.5°C 41.8°F5.4°C 26% 1.2 mph WNW1.9 kmh WNW 3.5 mph5.6 kmh 29.91 in1012.9 mb - 0.00 in0.0 mm 0.00 in0.0 mm
11:20 AM 81.1°F27.3°C 40.9°F4.9°C 24% 2.3 mph NW3.7 kmh NW 3.5 mph5.6 kmh 29.91 in1012.9 mb - 0.00 in0.0 mm 0.00 in0.0 mm
11:30 AM 81.7°F27.6°C 41.4°F5.2°C 24% Calm Calm 1.2 mph1.9 kmh 29.90 in1012.5 mb - 0.00 in0.0 mm 0.00 in0.0 mm
11:40 AM 82.4°F28.0°C 40.9°F4.9°C 23% 1.2 mph NW1.9 kmh NW 2.3 mph3.7 kmh 29.89 in1012.2 mb - 0.00 in0.0 mm 0.00 in0.0 mm
11:50 AM 82.8°F28.2°C 40.1°F4.5°C 22% 1.2 mph NW1.9 kmh NW 2.3 mph3.7 kmh 29.89 in1012.2 mb - 0.00 in0.0 mm 0.00 in0.0 mm
12:00 PM 83.4°F28.6°C 40.6°F4.8°C 22% 1.2 mph NNW1.9 kmh NNW 2.3 mph3.7 kmh 29.89 in1012.2 mb - 0.00 in0.0 mm 0.00 in0.0 mm
12:01 PM 71.5°F21.9°C 40.9°F4.9°C 33% 1.2 mph S1.9 kmh S 3.5 mph5.6 kmh 29.93 in1013.5 mb - 0.00 in0.0 mm 0.00 in0.0 mm
12:10 PM 84.0°F28.9°C 39.9°F4.4°C 21% Calm Calm 1.2 mph1.9 kmh 29.89 in1012.2 mb - 0.00 in0.0 mm 0.00 in0.0 mm
12:20 PM 84.1°F28.9°C 39.9°F4.4°C 21% 4.6 mph SSW7.4 kmh SSW 4.6 mph7.4 kmh 29.88 in1011.9 mb - 0.00 in0.0 mm 0.00 in0.0 mm
12:30 PM 84.0°F28.9°C 39.8°F4.3°C 21% 1.2 mph NNW1.9 kmh NNW 2.3 mph3.7 kmh 29.87 in1011.5 mb - 0.00 in0.0 mm 0.00 in0.0 mm
12:40 PM 84.1°F28.9°C 40.0°F4.4°C 21% Calm Calm 2.3 mph3.7 kmh 29.87 in1011.5 mb - 0.00 in0.0 mm 0.00 in0.0 mm
12:50 PM 84.5°F29.2°C 40.3°F4.6°C 21% 3.5 mph WSW5.6 kmh WSW 6.9 mph11.1 kmh 29.87 in1011.5 mb - 0.00 in0.0 mm 0.00 in0.0 mm
01:00 PM 84.9°F29.4°C 40.6°F4.8°C 21% 1.2 mph NNE1.9 kmh NNE 3.5 mph5.6 kmh 29.86 in1011.2 mb - 0.00 in0.0 mm 0.00 in0.0 mm
01:10 PM 85.2°F29.6°C 40.8°F4.9°C 21% 1.2 mph WNW1.9 kmh WNW 3.5 mph5.6 kmh 29.85 in1010.8 mb - 0.00 in0.0 mm 0.00 in0.0 mm
01:20 PM 84.6°F29.2°C 39.1°F3.9°C 20% 2.3 mph NNE3.7 kmh NNE 3.5 mph5.6 kmh 29.85 in1010.8 mb - 0.00 in0.0 mm 0.00 in0.0 mm
01:30 PM 84.7°F29.3°C 40.4°F4.7°C 21% 2.3 mph WSW3.7 kmh WSW 4.6 mph7.4 kmh 29.85 in1010.8 mb - 0.00 in0.0 mm 0.00 in0.0 mm
01:40 PM 85.0°F29.4°C 40.7°F4.8°C 21% 2.3 mph W3.7 kmh W 3.5 mph5.6 kmh 29.84 in1010.5 mb - 0.00 in0.0 mm 0.00 in0.0 mm
01:50 PM 85.4°F29.7°C 39.8°F4.3°C 20% 1.2 mph NW1.9 kmh NW 2.3 mph3.7 kmh 29.84 in1010.5 mb - 0.00 in0.0 mm 0.00 in0.0 mm
02:00 PM 85.6°F29.8°C 39.9°F4.4°C 20% 2.3 mph N3.7 kmh N 3.5 mph5.6 kmh 29.84 in1010.5 mb - 0.00 in0.0 mm 0.00 in0.0 mm
02:10 PM 86.4°F30.2°C 40.6°F4.8°C 20% 1.2 mph WSW1.9 kmh WSW 3.5 mph5.6 kmh 29.84 in1010.5 mb - 0.00 in0.0 mm 0.00 in0.0 mm
02:20 PM 87.0°F30.6°C 41.1°F5.1°C 20% 2.3 mph NW3.7 kmh NW 3.5 mph5.6 kmh 29.83 in1010.2 mb - 0.00 in0.0 mm 0.00 in0.0 mm
02:30 PM 87.3°F30.7°C 38.6°F3.7°C 18% 2.3 mph SW3.7 kmh SW 2.3 mph3.7 kmh 29.83 in1010.2 mb - 0.00 in0.0 mm 0.00 in0.0 mm
02:40 PM 86.6°F30.3°C 39.4°F4.1°C 19% Calm Calm 1.2 mph1.9 kmh 29.83 in1010.2 mb - 0.00 in0.0 mm 0.00 in0.0 mm
02:50 PM 86.8°F30.4°C 39.6°F4.2°C 19% 1.2 mph NNW1.9 kmh NNW 3.5 mph5.6 kmh 29.83 in1010.2 mb - 0.00 in0.0 mm 0.00 in0.0 mm
03:00 PM 86.9°F30.5°C 38.3°F3.5°C 18% Calm Calm 1.2 mph1.9 kmh 29.82 in1009.8 mb - 0.00 in0.0 mm 0.00 in0.0 mm
03:10 PM 86.8°F30.4°C 38.2°F3.4°C 18% 1.2 mph NE1.9 kmh NE 1.2 mph1.9 kmh 29.82 in1009.8 mb - 0.00 in0.0 mm 0.00 in0.0 mm
03:20 PM 85.9°F29.9°C 37.5°F3.1°C 18% 1.2 mph NE1.9 kmh NE 1.2 mph1.9 kmh 29.82 in1009.8 mb - 0.00 in0.0 mm 0.00 in0.0 mm
03:30 PM 86.5°F30.3°C 38.0°F3.3°C 18% 1.2 mph NNW1.9 kmh NNW 3.5 mph5.6 kmh 29.82 in1009.8 mb - 0.00 in0.0 mm 0.00 in0.0 mm
03:40 PM 87.0°F30.6°C 38.4°F3.6°C 18% 1.2 mph WSW1.9 kmh WSW 3.5 mph5.6 kmh 29.81 in1009.5 mb - 0.00 in0.0 mm 0.00 in0.0 mm
03:50 PM 87.4°F30.8°C 38.7°F3.7°C 18% 1.2 mph WSW1.9 kmh WSW 3.5 mph5.6 kmh 29.81 in1009.5 mb - 0.00 in0.0 mm 0.00 in0.0 mm
04:00 PM 87.1°F30.6°C 37.0°F2.8°C 17% 3.5 mph SW5.6 kmh SW 4.6 mph7.4 kmh 29.81 in1009.5 mb - 0.00 in0.0 mm 0.00 in0.0 mm
04:10 PM 86.8°F30.4°C 38.2°F3.4°C 18% 2.3 mph W3.7 kmh W 4.6 mph7.4 kmh 29.81 in1009.5 mb - 0.00 in0.0 mm 0.00 in0.0 mm
04:20 PM 86.3°F30.2°C 37.8°F3.2°C 18% 2.3 mph SW3.7 kmh SW 4.6 mph7.4 kmh 29.81 in1009.5 mb - 0.00 in0.0 mm 0.00 in0.0 mm
04:30 PM 85.6°F29.8°C 37.2°F2.9°C 18% 3.5 mph WSW5.6 kmh WSW 6.9 mph11.1 kmh 29.80 in1009.1 mb - 0.00 in0.0 mm 0.00 in0.0 mm
04:40 PM 85.2°F29.6°C 36.9°F2.7°C 18% 3.5 mph W5.6 kmh W 4.6 mph7.4 kmh 29.80 in1009.1 mb - 0.00 in0.0 mm 0.00 in0.0 mm
04:50 PM 84.5°F29.2°C 36.3°F2.4°C 18% 2.3 mph SW3.7 kmh SW 5.8 mph9.3 kmh 29.81 in1009.5 mb - 0.00 in0.0 mm 0.00 in0.0 mm
05:00 PM 83.6°F28.7°C 35.6°F2.0°C 18% 2.3 mph WSW3.7 kmh WSW 4.6 mph7.4 kmh 29.81 in1009.5 mb - 0.00 in0.0 mm 0.00 in0.0 mm
05:10 PM 83.2°F28.4°C 35.3°F1.8°C 18% 2.3 mph WNW3.7 kmh WNW 4.6 mph7.4 kmh 29.81 in1009.5 mb - 0.00 in0.0 mm 0.00 in0.0 mm
05:20 PM 82.4°F28.0°C 38.5°F3.6°C 21% 1.2 mph NW1.9 kmh NW 3.5 mph5.6 kmh 29.81 in1009.5 mb - 0.00 in0.0 mm 0.00 in0.0 mm
05:30 PM 81.5°F27.5°C 39.0°F3.9°C 22% 1.2 mph NW1.9 kmh NW 3.5 mph5.6 kmh 29.81 in1009.5 mb - 0.00 in0.0 mm 0.00 in0.0 mm
05:40 PM 80.9°F27.2°C 38.5°F3.6°C 22% 1.2 mph SW1.9 kmh SW 3.5 mph5.6 kmh 29.81 in1009.5 mb - 0.00 in0.0 mm 0.00 in0.0 mm
05:50 PM 80.2°F26.8°C 39.0°F3.9°C 23% 3.5 mph WNW5.6 kmh WNW 4.6 mph7.4 kmh 29.81 in1009.5 mb - 0.00 in0.0 mm 0.00 in0.0 mm
06:00 PM 79.3°F26.3°C 39.4°F4.1°C 24% 2.3 mph W3.7 kmh W 6.9 mph11.1 kmh 29.82 in1009.8 mb - 0.00 in0.0 mm 0.00 in0.0 mm
06:10 PM 78.5°F25.8°C 39.7°F4.3°C 25% 1.2 mph WNW1.9 kmh WNW 2.3 mph3.7 kmh 29.82 in1009.8 mb - 0.00 in0.0 mm 0.00 in0.0 mm
06:20 PM 78.0°F25.6°C 39.3°F4.1°C 25% 2.3 mph WNW3.7 kmh WNW 6.9 mph11.1 kmh 29.82 in1009.8 mb - 0.00 in0.0 mm 0.00 in0.0 mm
06:30 PM 77.5°F25.3°C 39.9°F4.4°C 26% 2.3 mph NW3.7 kmh NW 3.5 mph5.6 kmh 29.82 in1009.8 mb - 0.00 in0.0 mm 0.00 in0.0 mm
06:40 PM 77.0°F25.0°C 39.5°F4.2°C 26% 1.2 mph NW1.9 kmh NW 2.3 mph3.7 kmh 29.83 in1010.2 mb - 0.00 in0.0 mm 0.00 in0.0 mm
06:50 PM 76.6°F24.8°C 40.1°F4.5°C 27% 1.2 mph WNW1.9 kmh WNW 3.5 mph5.6 kmh 29.83 in1010.2 mb - 0.00 in0.0 mm 0.00 in0.0 mm
07:00 PM 76.1°F24.5°C 39.7°F4.3°C 27% Calm Calm 1.2 mph1.9 kmh 29.83 in1010.2 mb - 0.00 in0.0 mm 0.00 in0.0 mm
07:10 PM 75.7°F24.3°C 40.2°F4.6°C 28% Calm Calm 1.2 mph1.9 kmh 29.84 in1010.5 mb - 0.00 in0.0 mm 0.00 in0.0 mm
07:20 PM 75.2°F24.0°C 39.9°F4.4°C 28% Calm Calm -- 29.84 in1010.5 mb - 0.00 in0.0 mm 0.00 in0.0 mm
07:30 PM 74.8°F23.8°C 40.4°F4.7°C 29% Calm Calm 1.2 mph1.9 kmh 29.84 in1010.5 mb - 0.00 in0.0 mm 0.00 in0.0 mm
07:40 PM 74.3°F23.5°C 40.0°F4.4°C 29% Calm Calm -- 29.84 in1010.5 mb - 0.00 in0.0 mm 0.00 in0.0 mm
07:50 PM 73.9°F23.3°C 40.5°F4.7°C 30% Calm Calm -- 29.85 in1010.8 mb - 0.00 in0.0 mm 0.00 in0.0 mm
08:00 PM 73.3°F22.9°C 40.0°F4.4°C 30% Calm Calm 1.2 mph1.9 kmh 29.85 in1010.8 mb - 0.00 in0.0 mm 0.00 in0.0 mm
08:10 PM 72.8°F22.7°C 39.5°F4.2°C 30% Calm Calm 2.3 mph3.7 kmh 29.85 in1010.8 mb - 0.00 in0.0 mm 0.00 in0.0 mm
08:20 PM 72.4°F22.4°C 39.2°F4.0°C 30% Calm Calm 1.2 mph1.9 kmh 29.85 in1010.8 mb - 0.00 in0.0 mm 0.00 in0.0 mm
08:30 PM 72.1°F22.3°C 39.8°F4.3°C 31% Calm Calm 1.2 mph1.9 kmh 29.85 in1010.8 mb - 0.00 in0.0 mm 0.00 in0.0 mm
08:40 PM 71.8°F22.1°C 39.5°F4.2°C 31% Calm Calm -- 29.85 in1010.8 mb - 0.00 in0.0 mm 0.00 in0.0 mm
08:50 PM 71.4°F21.9°C 40.0°F4.4°C 32% Calm Calm 1.2 mph1.9 kmh 29.85 in1010.8 mb - 0.00 in0.0 mm 0.00 in0.0 mm
10:00 PM 68.9°F20.5°C 40.8°F4.9°C 36% Calm Calm -- 30.00 in1015.9 mb - 0.00 in0.0 mm 0.00 in0.0 mm
10:10 PM 68.1°F20.1°C 40.8°F4.9°C 37% Calm Calm -- 29.87 in1011.5 mb - 0.00 in0.0 mm 0.00 in0.0 mm
10:20 PM 67.5°F19.7°C 40.3°F4.6°C 37% Calm Calm -- 29.87 in1011.5 mb - 0.00 in0.0 mm 0.00 in0.0 mm
10:30 PM 66.8°F19.3°C 41.1°F5.1°C 39% Calm Calm -- 29.87 in1011.5 mb - 0.00 in0.0 mm 0.00 in0.0 mm
10:40 PM 66.3°F19.1°C 40.6°F4.8°C 39% Calm Calm 1.2 mph1.9 kmh 29.87 in1011.5 mb - 0.00 in0.0 mm 0.00 in0.0 mm
10:50 PM 65.8°F18.8°C 40.8°F4.9°C 40% Calm Calm 1.2 mph1.9 kmh 29.86 in1011.2 mb - 0.00 in0.0 mm 0.00 in0.0 mm
11:00 PM 65.4°F18.6°C 41.1°F5.1°C 41% Calm Calm -- 29.86 in1011.2 mb - 0.00 in0.0 mm 0.00 in0.0 mm
11:10 PM 65.1°F18.4°C 40.8°F4.9°C 41% Calm Calm -- 29.86 in1011.2 mb - 0.00 in0.0 mm 0.00 in0.0 mm
11:20 PM 64.9°F18.3°C 41.2°F5.1°C 42% Calm Calm -- 29.86 in1011.2 mb - 0.00 in0.0 mm 0.00 in0.0 mm
11:30 PM 64.5°F18.1°C 42.1°F5.6°C 44% Calm Calm -- 29.86 in1011.2 mb - 0.00 in0.0 mm 0.00 in0.0 mm
11:40 PM 64.1°F17.8°C 42.3°F5.7°C 45% Calm Calm -- 29.87 in1011.5 mb - 0.00 in0.0 mm 0.00 in0.0 mm
11:50 PM 63.6°F17.6°C 41.9°F5.5°C 45% Calm Calm -- 29.87 in1011.5 mb - 0.00 in0.0 mm 0.00 in0.0 mm